createdAt,value
2019-01-12T00:01:02.652Z,101723.00
2019-01-12T00:03:35.389Z,101729.00
2019-01-12T00:06:08.391Z,101711.00
2019-01-12T00:08:41.371Z,101717.00
2019-01-12T00:11:14.343Z,101713.00
2019-01-12T00:13:47.339Z,101713.00
2019-01-12T00:16:21.468Z,101711.00
2019-01-12T00:18:54.544Z,101705.00
2019-01-12T00:21:27.811Z,101710.00
2019-01-12T00:24:00.717Z,101704.00
2019-01-12T00:26:33.715Z,101704.00
2019-01-12T00:29:06.693Z,101707.00
2019-01-12T00:31:39.669Z,101707.00
2019-01-12T00:34:12.478Z,101710.00
2019-01-12T00:36:45.445Z,101703.00
2019-01-12T00:39:18.234Z,101702.00
2019-01-12T00:41:51.062Z,101701.00
2019-01-12T00:44:23.882Z,101699.00
2019-01-12T00:46:56.979Z,101689.00
2019-01-12T00:49:29.642Z,101695.00
2019-01-12T00:52:02.747Z,101704.00
2019-01-12T00:54:38.578Z,101698.00
2019-01-12T00:57:09.684Z,101699.00
2019-01-12T00:59:42.524Z,101699.00
2019-01-12T01:02:15.516Z,101696.00
2019-01-12T01:04:48.314Z,101695.00
2019-01-12T01:07:21.932Z,101697.00
2019-01-12T01:09:54.693Z,101686.00
2019-01-12T01:12:28.059Z,101691.00
2019-01-12T01:15:01.476Z,101685.00
2019-01-12T01:17:35.025Z,101692.00
2019-01-12T01:20:10.464Z,101685.00
2019-01-12T01:22:45.763Z,101693.00
2019-01-12T01:25:19.356Z,101691.00
2019-01-12T01:27:52.964Z,101683.00
2019-01-12T01:30:26.356Z,101681.00
2019-01-12T01:32:59.418Z,101681.00
2019-01-12T01:35:32.536Z,101682.00
2019-01-12T01:38:05.512Z,101670.00
2019-01-12T01:40:38.313Z,101675.00
2019-01-12T01:43:11.270Z,101665.00
2019-01-12T01:45:44.073Z,101668.00
2019-01-12T01:48:17.042Z,101669.00
2019-01-12T01:50:50.480Z,101659.00
2019-01-12T01:53:23.436Z,101676.00
2019-01-12T01:55:56.832Z,101695.00
2019-01-12T01:58:30.464Z,101705.00
2019-01-12T02:01:03.433Z,101706.00
2019-01-12T02:03:36.412Z,101709.00
2019-01-12T02:06:09.074Z,101707.00
2019-01-12T02:08:42.509Z,101708.00
2019-01-12T02:11:16.014Z,101713.00
2019-01-12T02:13:49.599Z,101702.00
2019-01-12T02:16:22.376Z,101708.00
2019-01-12T02:18:56.278Z,101706.00
2019-01-12T02:21:29.461Z,101705.00
2019-01-12T02:24:02.351Z,101712.00
2019-01-12T02:26:35.339Z,101707.00
2019-01-12T02:29:08.332Z,101713.00
2019-01-12T02:31:41.112Z,101703.00
2019-01-12T02:34:14.092Z,101702.00
2019-01-12T02:36:46.881Z,101706.00
2019-01-12T02:39:19.844Z,101694.00
2019-01-12T02:41:52.664Z,101695.00
2019-01-12T02:44:25.625Z,101697.00
2019-01-12T02:46:58.408Z,101694.00
2019-01-12T02:49:31.317Z,101695.00
2019-01-12T02:52:04.510Z,101688.00
2019-01-12T02:54:38.937Z,101699.00
2019-01-12T02:57:11.913Z,101691.00
2019-01-12T02:59:44.980Z,101686.00
2019-01-12T03:02:17.775Z,101689.00
2019-01-12T03:04:50.677Z,101689.00
2019-01-12T03:07:23.593Z,101679.00
2019-01-12T03:09:56.312Z,101682.00
2019-01-12T03:12:29.226Z,101669.00
2019-01-12T03:15:01.975Z,101674.00
2019-01-12T03:17:35.070Z,101670.00
2019-01-12T03:20:10.250Z,101679.00
2019-01-12T03:22:43.310Z,101672.00
2019-01-12T03:25:18.742Z,101665.00
2019-01-12T03:27:50.510Z,101660.00
2019-01-12T03:30:23.416Z,101662.00
2019-01-12T03:32:56.271Z,101661.00
2019-01-12T03:35:28.979Z,101653.00
2019-01-12T03:38:01.830Z,101653.00
2019-01-12T03:40:34.981Z,101660.00
2019-01-12T03:43:07.804Z,101654.00
2019-01-12T03:45:40.706Z,101654.00
2019-01-12T03:48:13.585Z,101659.00
2019-01-12T03:50:46.546Z,101663.00
2019-01-12T03:53:19.334Z,101664.00
2019-01-12T03:55:52.323Z,101658.00
2019-01-12T03:58:25.112Z,101659.00
2019-01-12T04:00:57.903Z,101661.00
2019-01-12T04:03:30.799Z,101650.00
2019-01-12T04:06:03.671Z,101648.00
2019-01-12T04:08:36.507Z,101656.00
2019-01-12T04:11:09.469Z,101656.00
2019-01-12T04:13:43.380Z,101650.00
2019-01-12T04:16:16.568Z,101664.00
2019-01-12T04:18:49.830Z,101651.00
2019-01-12T04:21:22.747Z,101646.00
2019-01-12T04:23:56.088Z,101637.00
2019-01-12T04:26:29.199Z,101639.00
2019-01-12T04:29:02.472Z,101635.00
2019-01-12T04:31:35.519Z,101634.00
2019-01-12T04:34:08.577Z,101635.00
2019-01-12T04:36:41.960Z,101643.00
2019-01-12T04:39:15.570Z,101644.00
2019-01-12T04:41:48.831Z,101643.00
2019-01-12T04:44:22.180Z,101644.00
2019-01-12T04:46:55.272Z,101635.00
2019-01-12T04:49:28.109Z,101638.00
2019-01-12T04:52:01.208Z,101641.00
2019-01-12T04:54:33.948Z,101633.00
2019-01-12T04:57:06.928Z,101636.00
2019-01-12T04:59:39.710Z,101639.00
2019-01-12T05:02:13.156Z,101639.00
2019-01-12T05:04:46.112Z,101638.00
2019-01-12T05:07:19.051Z,101639.00
2019-01-12T05:09:51.856Z,101642.00
2019-01-12T05:12:24.762Z,101638.00
2019-01-12T05:14:57.690Z,101636.00
2019-01-12T05:17:30.827Z,101637.00
2019-01-12T05:20:03.813Z,101643.00
2019-01-12T05:22:36.792Z,101630.00
2019-01-12T05:25:09.664Z,101634.00
2019-01-12T05:27:43.821Z,101633.00
2019-01-12T05:30:18.722Z,101638.00
2019-01-12T05:32:51.806Z,101640.00
2019-01-12T05:35:24.804Z,101640.00
2019-01-12T05:37:57.773Z,101643.00
2019-01-12T05:40:30.437Z,101652.00
2019-01-12T05:43:03.493Z,101647.00
2019-01-12T05:45:36.334Z,101650.00
2019-01-12T05:48:09.314Z,101647.00
2019-01-12T05:50:42.222Z,101648.00
2019-01-12T05:53:15.278Z,101646.00
2019-01-12T05:55:48.080Z,101641.00
2019-01-12T05:58:20.993Z,101644.00
2019-01-12T06:00:53.914Z,101649.00
2019-01-12T06:03:27.016Z,101644.00
2019-01-12T06:05:59.808Z,101646.00
2019-01-12T06:08:32.721Z,101650.00
2019-01-12T06:11:05.576Z,101648.00
2019-01-12T06:13:38.561Z,101661.00
2019-01-12T06:16:11.229Z,101660.00
2019-01-12T06:18:44.334Z,101657.00
2019-01-12T06:21:18.231Z,101655.00
2019-01-12T06:23:51.439Z,101661.00
2019-01-12T06:26:24.365Z,101659.00
2019-01-12T06:28:57.592Z,101667.00
2019-01-12T06:31:30.485Z,101658.00
2019-01-12T06:34:03.308Z,101662.00
2019-01-12T06:36:37.170Z,101663.00
2019-01-12T06:39:11.357Z,101678.00
2019-01-12T06:41:44.466Z,101679.00
2019-01-12T06:44:17.293Z,101683.00
2019-01-12T06:46:50.060Z,101690.00
2019-01-12T06:49:22.963Z,101691.00
2019-01-12T06:51:55.839Z,101696.00
2019-01-12T06:54:28.900Z,101703.00
2019-01-12T06:57:01.807Z,101696.00
2019-01-12T06:59:36.935Z,101699.00
2019-01-12T07:02:09.824Z,101709.00
2019-01-12T07:04:42.798Z,101709.00
2019-01-12T07:07:15.586Z,101709.00
2019-01-12T07:09:48.594Z,101718.00
2019-01-12T07:12:21.387Z,101713.00
2019-01-12T07:14:54.571Z,101722.00
2019-01-12T07:17:27.336Z,101716.00
2019-01-12T07:20:00.327Z,101728.00
2019-01-12T07:22:33.116Z,101725.00
2019-01-12T07:25:06.113Z,101725.00
2019-01-12T07:27:39.206Z,101727.00
2019-01-12T07:30:19.666Z,101730.00
2019-01-12T07:32:52.619Z,101733.00
2019-01-12T07:35:25.650Z,101739.00
2019-01-12T07:37:58.512Z,101733.00
2019-01-12T07:40:31.658Z,101734.00
2019-01-12T07:43:04.589Z,101742.00
2019-01-12T07:45:37.467Z,101757.00
2019-01-12T07:48:10.721Z,101749.00
2019-01-12T07:50:43.725Z,101753.00
2019-01-12T07:53:17.165Z,101747.00
2019-01-12T07:55:50.218Z,101761.00
2019-01-12T07:58:22.986Z,101753.00
2019-01-12T08:00:56.075Z,101748.00
2019-01-12T08:03:28.893Z,101741.00
2019-01-12T08:06:01.790Z,101753.00
2019-01-12T08:08:34.655Z,101743.00
2019-01-12T08:11:07.632Z,101756.00
2019-01-12T08:13:40.701Z,101759.00
2019-01-12T08:16:14.053Z,101758.00
2019-01-12T08:18:46.663Z,101771.00
2019-01-12T08:21:19.868Z,101770.00
2019-01-12T08:23:52.762Z,101770.00
2019-01-12T08:26:31.040Z,101764.00
2019-01-12T08:29:00.474Z,101769.00
2019-01-12T08:31:33.585Z,101767.00
2019-01-12T08:34:06.352Z,101771.00
2019-01-12T08:36:39.253Z,101779.00
2019-01-12T08:39:12.249Z,101779.00
2019-01-12T08:41:45.109Z,101774.00
2019-01-12T08:44:18.851Z,101773.00
2019-01-12T08:46:51.711Z,101772.00
2019-01-12T08:49:25.293Z,101773.00
2019-01-12T08:51:58.089Z,101775.00
2019-01-12T08:54:30.976Z,101774.00
2019-01-12T08:57:03.853Z,101773.00
2019-01-12T08:59:37.120Z,101772.00
2019-01-12T09:02:10.036Z,101780.00
2019-01-12T09:04:43.626Z,101783.00
2019-01-12T09:07:16.617Z,101793.00
2019-01-12T09:09:49.593Z,101787.00
2019-01-12T09:12:22.374Z,101791.00
2019-01-12T09:14:55.313Z,101793.00
2019-01-12T09:17:28.342Z,101790.00
2019-01-12T09:20:01.552Z,101786.00
2019-01-12T09:22:34.522Z,101786.00
2019-01-12T09:25:08.094Z,101784.00
2019-01-12T09:27:41.118Z,101777.00
2019-01-12T09:30:18.824Z,101772.00
2019-01-12T09:32:52.004Z,101792.00
2019-01-12T09:35:25.017Z,101782.00
2019-01-12T09:37:58.059Z,101784.00
2019-01-12T09:40:30.754Z,101785.00
2019-01-12T09:43:03.891Z,101778.00
2019-01-12T09:45:36.747Z,101782.00
2019-01-12T09:48:11.283Z,101781.00
2019-01-12T09:50:44.168Z,101777.00
2019-01-12T09:53:17.014Z,101778.00
2019-01-12T09:55:49.962Z,101784.00
2019-01-12T09:58:23.118Z,101783.00
2019-01-12T10:00:55.919Z,101781.00
2019-01-12T10:03:29.091Z,101783.00
2019-01-12T10:06:01.739Z,101772.00
2019-01-12T10:08:34.651Z,101780.00
2019-01-12T10:11:07.640Z,101780.00
2019-01-12T10:13:40.404Z,101779.00
2019-01-12T10:16:13.212Z,101775.00
2019-01-12T10:18:46.168Z,101776.00
2019-01-12T10:21:18.848Z,101776.00
2019-01-12T10:23:51.950Z,101779.00
2019-01-12T10:26:24.746Z,101778.00
2019-01-12T10:28:58.856Z,101774.00
2019-01-12T10:31:31.909Z,101769.00
2019-01-12T10:34:04.590Z,101762.00
2019-01-12T10:36:37.719Z,101769.00
2019-01-12T10:39:10.747Z,101770.00
2019-01-12T10:41:43.544Z,101769.00
2019-01-12T10:44:16.655Z,101773.00
2019-01-12T10:46:49.316Z,101768.00
2019-01-12T10:49:22.231Z,101764.00
2019-01-12T10:51:55.222Z,101768.00
2019-01-12T10:54:28.188Z,101766.00
2019-01-12T10:57:05.490Z,101763.00
2019-01-12T10:59:35.394Z,101776.00
2019-01-12T11:02:08.845Z,101778.00
2019-01-12T11:04:41.789Z,101779.00
2019-01-12T11:07:16.937Z,101768.00
2019-01-12T11:09:49.834Z,101764.00
2019-01-12T11:12:22.583Z,101759.00
2019-01-12T11:14:55.646Z,101754.00
2019-01-12T11:17:28.603Z,101753.00
2019-01-12T11:20:01.526Z,101751.00
2019-01-12T11:22:34.337Z,101754.00
2019-01-12T11:25:08.702Z,101757.00
2019-01-12T11:27:41.523Z,101755.00
2019-01-12T11:30:17.002Z,101755.00
2019-01-12T11:32:49.969Z,101753.00
2019-01-12T11:35:23.035Z,101754.00
2019-01-12T11:37:55.914Z,101745.00
2019-01-12T11:40:28.849Z,101751.00
2019-01-12T11:43:01.698Z,101764.00
2019-01-12T11:45:34.819Z,101760.00
2019-01-12T11:48:07.871Z,101752.00
2019-01-12T11:50:40.662Z,101753.00
2019-01-12T11:53:13.586Z,101744.00
2019-01-12T11:55:46.431Z,101743.00
2019-01-12T11:58:19.599Z,101740.00
2019-01-12T12:00:52.481Z,101731.00
2019-01-12T12:03:25.577Z,101734.00
2019-01-12T12:05:58.452Z,101743.00
2019-01-12T12:08:31.538Z,101735.00
2019-01-12T12:11:04.349Z,101738.00
2019-01-12T12:13:37.318Z,101733.00
2019-01-12T12:16:10.171Z,101737.00
2019-01-12T12:18:43.374Z,101739.00
2019-01-12T12:21:16.282Z,101732.00
2019-01-12T12:23:49.145Z,101723.00
2019-01-12T12:26:22.067Z,101714.00
2019-01-12T12:28:55.137Z,101718.00
2019-01-12T12:31:28.029Z,101724.00
2019-01-12T12:34:01.138Z,101722.00
2019-01-12T12:36:34.248Z,101718.00
2019-01-12T12:39:08.349Z,101723.00
2019-01-12T12:41:41.214Z,101723.00
2019-01-12T12:44:14.504Z,101719.00
2019-01-12T12:46:47.422Z,101717.00
2019-01-12T12:49:21.085Z,101716.00
2019-01-12T12:51:54.022Z,101716.00
2019-01-12T12:54:27.149Z,101706.00
2019-01-12T12:56:59.954Z,101699.00
2019-01-12T12:59:32.790Z,101711.00
2019-01-12T13:02:05.914Z,101704.00
2019-01-12T13:04:38.991Z,101703.00
2019-01-12T13:07:11.897Z,101693.00
2019-01-12T13:09:44.883Z,101690.00
2019-01-12T13:12:17.868Z,101689.00
2019-01-12T13:14:50.665Z,101689.00
2019-01-12T13:17:23.613Z,101694.00
2019-01-12T13:19:56.421Z,101676.00
2019-01-12T13:22:29.278Z,101676.00
2019-01-12T13:25:02.058Z,101679.00
2019-01-12T13:27:39.836Z,101663.00
2019-01-12T13:30:14.054Z,101669.00
2019-01-12T13:32:47.279Z,101657.00
2019-01-12T13:35:20.287Z,101653.00
2019-01-12T13:37:53.289Z,101648.00
2019-01-12T13:40:27.239Z,101648.00
2019-01-12T13:43:00.251Z,101640.00
2019-01-12T13:45:33.045Z,101644.00
2019-01-12T13:48:06.036Z,101641.00
2019-01-12T13:50:38.818Z,101636.00
2019-01-12T13:53:12.016Z,101640.00
2019-01-12T13:55:44.793Z,101639.00
2019-01-12T13:58:17.702Z,101634.00
2019-01-12T14:00:51.224Z,101638.00
2019-01-12T14:03:24.158Z,101632.00
2019-01-12T14:05:58.289Z,101631.00
2019-01-12T14:08:31.153Z,101632.00
2019-01-12T14:11:04.142Z,101628.00
2019-01-12T14:13:36.912Z,101628.00
2019-01-12T14:16:10.524Z,101619.00
2019-01-12T14:18:43.304Z,101620.00
2019-01-12T14:21:17.291Z,101620.00
2019-01-12T14:23:50.303Z,101612.00
2019-01-12T14:26:23.271Z,101615.00
2019-01-12T14:28:55.944Z,101604.00
2019-01-12T14:31:29.069Z,101605.00
2019-01-12T14:34:01.821Z,101603.00
2019-01-12T14:36:36.169Z,101599.00
2019-01-12T14:39:11.529Z,101599.00
2019-01-12T14:41:45.489Z,101606.00
2019-01-12T14:44:18.294Z,101609.00
2019-01-12T14:46:51.187Z,101603.00
2019-01-12T14:49:24.180Z,101593.00
2019-01-12T14:51:56.921Z,101594.00
2019-01-12T14:54:30.025Z,101593.00
2019-01-12T14:57:02.854Z,101585.00
2019-01-12T14:59:35.801Z,101586.00
2019-01-12T15:02:08.570Z,101591.00
2019-01-12T15:04:41.671Z,101580.00
2019-01-12T15:07:14.576Z,101587.00
2019-01-12T15:09:47.735Z,101578.00
2019-01-12T15:12:20.579Z,101585.00
2019-01-12T15:14:53.623Z,101582.00
2019-01-12T15:17:26.531Z,101583.00
2019-01-12T15:19:59.776Z,101581.00
2019-01-12T15:22:32.695Z,101584.00
2019-01-12T15:25:05.655Z,101569.00
2019-01-12T15:27:38.482Z,101561.00
2019-01-12T15:30:25.577Z,101561.00
2019-01-12T15:32:58.552Z,101572.00
2019-01-12T15:35:33.396Z,101577.00
2019-01-12T15:38:06.465Z,101575.00
2019-01-12T15:40:39.459Z,101575.00
2019-01-12T15:43:12.553Z,101578.00
2019-01-12T15:45:45.197Z,101581.00
2019-01-12T15:48:18.127Z,101585.00
2019-01-12T15:50:50.959Z,101584.00
2019-01-12T15:53:23.873Z,101584.00
2019-01-12T15:55:57.182Z,101585.00
2019-01-12T15:58:30.131Z,101582.00
2019-01-12T16:01:03.151Z,101577.00
2019-01-12T16:03:36.431Z,101575.00
2019-01-12T16:06:09.228Z,101580.00
2019-01-12T16:08:42.224Z,101583.00
2019-01-12T16:11:15.264Z,101579.00
2019-01-12T16:13:48.203Z,101580.00
2019-01-12T16:16:21.366Z,101579.00
2019-01-12T16:18:54.205Z,101586.00
2019-01-12T16:21:27.352Z,101587.00
2019-01-12T16:24:00.127Z,101587.00
2019-01-12T16:26:33.222Z,101587.00
2019-01-12T16:29:06.231Z,101573.00
2019-01-12T16:31:39.087Z,101570.00
2019-01-12T16:34:12.351Z,101569.00
2019-01-12T16:36:45.287Z,101579.00
2019-01-12T16:39:18.347Z,101577.00
2019-01-12T16:41:51.229Z,101573.00
2019-01-12T16:44:24.193Z,101574.00
2019-01-12T16:46:57.003Z,101581.00
2019-01-12T16:49:29.786Z,101577.00
2019-01-12T16:52:03.372Z,101581.00
2019-01-12T16:54:36.179Z,101568.00
2019-01-12T16:57:08.960Z,101571.00
2019-01-12T16:59:41.928Z,101565.00
2019-01-12T17:02:14.768Z,101568.00
2019-01-12T17:04:47.900Z,101567.00
2019-01-12T17:07:20.678Z,101561.00
2019-01-12T17:09:53.503Z,101563.00
2019-01-12T17:12:26.454Z,101566.00
2019-01-12T17:14:59.456Z,101572.00
2019-01-12T17:17:32.223Z,101570.00
2019-01-12T17:20:05.195Z,101564.00
2019-01-12T17:22:37.876Z,101561.00
2019-01-12T17:25:11.484Z,101558.00
2019-01-12T17:27:44.400Z,101557.00
2019-01-12T17:30:21.832Z,101556.00
2019-01-12T17:32:54.649Z,101559.00
2019-01-12T17:35:27.625Z,101554.00
2019-01-12T17:38:00.536Z,101557.00
2019-01-12T17:40:33.608Z,101554.00
2019-01-12T17:43:06.270Z,101545.00
2019-01-12T17:45:39.181Z,101557.00
2019-01-12T17:48:12.148Z,101546.00
2019-01-12T17:50:44.954Z,101548.00
2019-01-12T17:53:17.918Z,101548.00
2019-01-12T17:55:50.590Z,101549.00
2019-01-12T17:58:23.493Z,101550.00
2019-01-12T18:00:56.462Z,101559.00
2019-01-12T18:03:29.259Z,101553.00
2019-01-12T18:06:01.925Z,101556.00
2019-01-12T18:08:34.953Z,101556.00
2019-01-12T18:11:07.809Z,101546.00
2019-01-12T18:13:40.854Z,101544.00
2019-01-12T18:16:13.842Z,101540.00
2019-01-12T18:18:46.771Z,101543.00
2019-01-12T18:21:19.554Z,101541.00
2019-01-12T18:23:52.528Z,101538.00
2019-01-12T18:26:25.527Z,101539.00
2019-01-12T18:28:58.431Z,101545.00
2019-01-12T18:31:31.508Z,101539.00
2019-01-12T18:34:04.495Z,101538.00
2019-01-12T18:36:37.679Z,101546.00
2019-01-12T18:39:10.888Z,101537.00
2019-01-12T18:41:44.052Z,101544.00
2019-01-12T18:44:16.844Z,101541.00
2019-01-12T18:46:49.708Z,101537.00
2019-01-12T18:49:22.616Z,101537.00
2019-01-12T18:51:55.690Z,101543.00
2019-01-12T18:54:28.603Z,101546.00
2019-01-12T18:57:01.564Z,101545.00
2019-01-12T18:59:34.559Z,101557.00
2019-01-12T19:02:07.477Z,101554.00
2019-01-12T19:04:40.337Z,101550.00
2019-01-12T19:07:13.306Z,101542.00
2019-01-12T19:09:46.106Z,101551.00
2019-01-12T19:12:18.882Z,101547.00
2019-01-12T19:14:51.868Z,101539.00
2019-01-12T19:17:24.646Z,101546.00
2019-01-12T19:19:57.806Z,101548.00
2019-01-12T19:22:30.629Z,101551.00
2019-01-12T19:25:03.590Z,101547.00
2019-01-12T19:27:36.602Z,101550.00
2019-01-12T19:30:17.677Z,101557.00
2019-01-12T19:32:50.701Z,101553.00
2019-01-12T19:35:23.465Z,101550.00
2019-01-12T19:37:56.646Z,101550.00
2019-01-12T19:40:29.762Z,101548.00
2019-01-12T19:43:02.827Z,101560.00
2019-01-12T19:45:35.696Z,101560.00
2019-01-12T19:48:08.591Z,101552.00
2019-01-12T19:50:41.335Z,101549.00
2019-01-12T19:53:14.454Z,101563.00
2019-01-12T19:55:47.146Z,101552.00
2019-01-12T19:58:20.145Z,101546.00
2019-01-12T20:00:53.301Z,101543.00
2019-01-12T20:03:26.073Z,101544.00
2019-01-12T20:05:59.509Z,101546.00
2019-01-12T20:08:32.393Z,101543.00
2019-01-12T20:11:05.544Z,101543.00
2019-01-12T20:13:38.346Z,101535.00
2019-01-12T20:16:11.326Z,101542.00
2019-01-12T20:18:44.094Z,101537.00
2019-01-12T20:21:17.068Z,101536.00
2019-01-12T20:23:50.077Z,101539.00
2019-01-12T20:26:22.994Z,101527.00
2019-01-12T20:28:55.935Z,101526.00
2019-01-12T20:31:49.110Z,101538.00
2019-01-12T20:34:23.823Z,101522.00
2019-01-12T20:37:07.831Z,101525.00
2019-01-12T20:39:42.906Z,101524.00
2019-01-12T20:42:30.234Z,101517.00
2019-01-12T20:45:35.675Z,101521.00
2019-01-12T20:48:22.478Z,101515.00
2019-01-12T20:51:00.028Z,101519.00
2019-01-12T20:53:37.938Z,101518.00
2019-01-12T20:56:15.729Z,101508.00
2019-01-12T20:58:50.921Z,101512.00
2019-01-12T21:01:34.348Z,101508.00
2019-01-12T21:04:18.962Z,101495.00
2019-01-12T21:06:59.178Z,101493.00
2019-01-12T21:09:46.262Z,101488.00
2019-01-12T21:12:32.963Z,101491.00
2019-01-12T21:15:08.243Z,101502.00
2019-01-12T21:17:41.398Z,101499.00
2019-01-12T21:20:14.693Z,101499.00
2019-01-12T21:22:47.619Z,101493.00
2019-01-12T21:25:20.583Z,101487.00
2019-01-12T21:27:53.382Z,101478.00
2019-01-12T21:30:26.357Z,101480.00
2019-01-12T21:32:59.012Z,101470.00
2019-01-12T21:35:31.929Z,101472.00
2019-01-12T21:38:04.950Z,101475.00
2019-01-12T21:40:37.754Z,101473.00
2019-01-12T21:43:10.926Z,101473.00
2019-01-12T21:45:43.719Z,101463.00
2019-01-12T21:48:16.779Z,101465.00
2019-01-12T21:50:49.691Z,101459.00
2019-01-12T21:53:22.703Z,101467.00
2019-01-12T21:55:55.704Z,101460.00
2019-01-12T21:58:28.601Z,101463.00
2019-01-12T22:01:01.548Z,101467.00
2019-01-12T22:03:34.716Z,101463.00
2019-01-12T22:06:07.755Z,101461.00
2019-01-12T22:08:40.685Z,101449.00
2019-01-12T22:11:13.598Z,101448.00
2019-01-12T22:13:46.557Z,101444.00
2019-01-12T22:16:19.354Z,101437.00
2019-01-12T22:18:52.437Z,101434.00
2019-01-12T22:21:25.327Z,101435.00
2019-01-12T22:23:58.593Z,101434.00
2019-01-12T22:26:31.512Z,101429.00
2019-01-12T22:29:04.858Z,101429.00
2019-01-12T22:31:37.704Z,101436.00
2019-01-12T22:34:10.828Z,101429.00
2019-01-12T22:36:43.850Z,101422.00
2019-01-12T22:39:17.738Z,101424.00
2019-01-12T22:41:50.649Z,101422.00
2019-01-12T22:44:23.945Z,101423.00
2019-01-12T22:46:56.842Z,101422.00
2019-01-12T22:49:29.622Z,101417.00
2019-01-12T22:52:02.600Z,101424.00
2019-01-12T22:54:35.515Z,101417.00
2019-01-12T22:57:08.578Z,101408.00
2019-01-12T22:59:41.496Z,101400.00
2019-01-12T23:02:14.346Z,101392.00
2019-01-12T23:04:48.221Z,101391.00
2019-01-12T23:07:21.127Z,101391.00
2019-01-12T23:09:54.333Z,101388.00
2019-01-12T23:12:27.321Z,101377.00
2019-01-12T23:15:01.441Z,101381.00
2019-01-12T23:17:34.489Z,101381.00
2019-01-12T23:20:08.472Z,101392.00
2019-01-12T23:22:41.506Z,101390.00
2019-01-12T23:25:14.507Z,101373.00
2019-01-12T23:27:47.681Z,101361.00
2019-01-12T23:30:20.960Z,101363.00
2019-01-12T23:32:54.084Z,101360.00
2019-01-12T23:35:28.180Z,101364.00
2019-01-12T23:40:31.384Z,101355.00
2019-01-12T23:43:04.180Z,101352.00
2019-01-12T23:45:37.085Z,101355.00
2019-01-12T23:48:09.943Z,101348.00
2019-01-12T23:50:42.929Z,101344.00
2019-01-12T23:53:15.913Z,101344.00
2019-01-12T23:55:48.972Z,101346.00
2019-01-12T23:58:22.115Z,101355.00
